< < Back
Terminal Aerodrome Forecast


Current Version              Previous Versions:   1  2  3  4  5  6  7  8  9  

Terminal Aerodrome Forecast

475
FTUS42 KGSP 282300
TAFGSP
TAF
KGSP 282325Z 2900/2924 14005KT P6SM SKC
     FM291400 09004KT P6SM FEW060=

Latest METAR

985
SAUS70 KWBC 290800 RRH
MTRGSP
METAR KGSP 290753Z AUTO 00000KT 10SM CLR 21/19 A3004 RMK AO2 SLP158
T02110194


USA.gov is the U.S. government's official web portal to all federal, state and local government web resources and services.